Flight Track Log - Related Links

Times and Time Zones

All times are in EST time to prevent confusion due to time zone crossing. See the RPA5503 flight status page for this flight to view local times or setup timezone preferences in your user account.

Time Position Orientation Groundspeed Altitude Reporting Facility
EST Latitude Longitude Course Direction KTS MPH feet Rate Location/Type
Fri 11:43:12 AM 34.7000 -90.3500 360° North 169 194 1,200  Level KMEM
Fri 11:43:55 AM 34.7333 -90.3500 360° North 148 170 2,300 1,294 Climbing KMEM
Fri 11:44:54 AM 34.7833 -90.3667 345° North 196 226 3,400 1,800 Climbing KMEM
Fri 11:45:55 AM 34.8333 -90.4000 331° Northwest 242 278 5,900 2,876 Climbing KMEM
Fri 11:46:55 AM 34.8833 -90.4500 321° Northwest 258 297 9,200 2,800 Climbing KMEM
Fri 11:47:55 AM 34.9122 -90.5328 293° West 270 311 11,500 2,656 Climbing Memphis Center
Fri 11:48:57 AM 34.9272 -90.6225 282° West 274 315 14,600 2,710 Climbing Memphis Center
Fri 11:49:59 AM 34.9069 -90.7089 254° West 293 337 17,100 2,274 Climbing Memphis Center
Fri 11:51:01 AM 34.9075 -90.8031 270° West 282 325 19,300 2,177 Climbing Memphis Center
Fri 11:52:03 AM 34.9075 -90.8989 270° West 281 323 21,600 2,419 Climbing Memphis Center
Fri 11:53:05 AM 34.8558 -91.0033 239° Southwest 308 354 24,300 2,323 Climbing Memphis Center
Fri 11:54:07 AM 34.7939 -91.0728 223° Southwest 310 357 26,400 1,824 Climbing Memphis Center
Fri 11:55:10 AM 34.7319 -91.1411 222° Southwest 304 350 28,100 1,008 Climbing Memphis Center
Fri 11:56:12 AM 34.6664 -91.2153 223° Southwest 311 358 28,500 726 Climbing Memphis Center
Fri 11:57:14 AM 34.5936 -91.2953 222° Southwest 330 380 29,600 1,113 Climbing Memphis Center
Fri 11:58:16 AM 34.5208 -91.3758 222° Southwest 342 394 30,800 1,152 Climbing Memphis Center
Fri 11:59:19 AM 34.4297 -91.4756 222° Southwest 355 409 32,000 1,200 Climbing Memphis Center
Fri 12:00:21 PM 34.3547 -91.5583 222° Southwest 361 415 33,300 968 Climbing Memphis Center
Fri 12:01:23 PM 34.2808 -91.6386 222° Southwest 361 415 34,000 336 Climbing Memphis Center
Fri 12:02:26 PM 34.2069 -91.7211 223° Southwest 359 413 34,000  Level Memphis Center
Fri 12:03:28 PM 34.1292 -91.8053 222° Southwest 367 422 34,000  Level Memphis Center
Fri 12:04:30 PM 34.0444 -91.8981 222° Southwest 369 425 34,000  Level Memphis Center
Fri 12:05:32 PM 33.9681 -91.9789 221° Southwest 366 421 34,000  Level Memphis Center
Fri 12:06:34 PM 33.8944 -92.0608 223° Southwest 362 417 34,000  Level Memphis Center
Fri 12:07:36 PM 33.8186 -92.1422 222° Southwest 363 418 34,000  Level Memphis Center
Fri 12:08:38 PM 33.7294 -92.2383 222° Southwest 360 414 34,000  Level Memphis Center
Fri 12:09:40 PM 33.6550 -92.3194 222° Southwest 360 414 34,000  Level Memphis Center
Fri 12:10:42 PM 33.5800 -92.3994 222° Southwest 361 415 34,000  Level Memphis Center
Fri 12:11:44 PM 33.5033 -92.4781 221° Southwest 362 417 34,000  Level Memphis Center
Fri 12:12:46 PM 33.4281 -92.5572 221° Southwest 360 414 34,000  Level Memphis Center
Fri 12:13:48 PM 33.3517 -92.6378 221° Southwest 363 418 34,000  Level Memphis Center
Fri 12:14:50 PM 33.2603 -92.7342 221° Southwest 364 419 34,000  Level Memphis Center
Fri 12:15:52 PM 33.1839 -92.8139 221° Southwest 364 419 34,000  Level Memphis Center
Fri 12:16:54 PM 33.1061 -92.8928 220° Southwest 366 421 34,000  Level Memphis Center
Fri 12:18:19 PM 33.0000 -93.0044 221° Southwest 367 422 34,000  Level Fort Worth Center
Fri 12:19:20 PM 32.9222 -93.0844 221° Southwest 369 425 34,000  Level Fort Worth Center
Fri 12:20:23 PM 32.8458 -93.1636 221° Southwest 364 419 34,000  Level Fort Worth Center
Fri 12:21:25 PM 32.7686 -93.2431 221° Southwest 365 420 34,000  Level Fort Worth Center
Fri 12:22:27 PM 32.6906 -93.3217 220° Southwest 366 421 34,000  Level Fort Worth Center
Fri 12:23:29 PM 32.5986 -93.4147 220° Southwest 364 419 34,000  Level Fort Worth Center
Fri 12:24:31 PM 32.5206 -93.4958 221° Southwest 369 425 34,000  Level Fort Worth Center
Fri 12:25:33 PM 32.4425 -93.5744 220° Southwest 369 425 34,000  Level Fort Worth Center
Fri 12:26:35 PM 32.3631 -93.6569 221° Southwest 377 434 34,000  Level Fort Worth Center
Fri 12:27:37 PM 32.2847 -93.7367 221° Southwest 373 429 34,000  Level Fort Worth Center
Fri 12:28:39 PM 32.2047 -93.8147 220° Southwest 376 433 34,000  Level Fort Worth Center
Fri 12:29:41 PM 32.1175 -93.9061 222° Southwest 382 440 34,000  Level Fort Worth Center
Fri 12:30:43 PM 32.0378 -93.9850 220° Southwest 375 432 34,000  Level Fort Worth Center
Fri 12:31:45 PM 31.9583 -94.0653 221° Southwest 375 432 34,000  Level Fort Worth Center
Fri 12:32:48 PM 31.8636 -94.1603 220° Southwest 375 432 34,000  Level Fort Worth Center
Fri 12:33:31 PM 31.8186 -94.2044 220° Southwest 374 430 34,000  Level Houston Center
Fri 12:34:35 PM 31.7353 -94.2869 220° Southwest 377 434 34,000  Level Houston Center
Fri 12:35:36 PM 31.6406 -94.3817 220° Southwest 373 429 34,000  Level Houston Center
Fri 12:36:39 PM 31.5600 -94.4617 220° Southwest 379 436 34,000  Level Houston Center
Fri 12:37:40 PM 31.4800 -94.5419 221° Southwest 379 436 34,000  Level Houston Center
Fri 12:38:43 PM 31.3994 -94.6214 220° Southwest 379 436 34,000  Level Houston Center
Fri 12:39:45 PM 31.3203 -94.7000 220° Southwest 376 433 34,000  Level Houston Center
Fri 12:40:46 PM 31.2247 -94.7925 220° Southwest 378 435 34,000  Level Houston Center
Fri 12:41:50 PM 31.1486 -94.8681 220° Southwest 379 436 34,000  Level Houston Center
Fri 12:42:50 PM 31.0681 -94.9467 220° Southwest 379 436 34,000  Level Houston Center
Fri 12:43:54 PM 30.9886 -95.0239 220° Southwest 374 430 34,000  Level Houston Center
Fri 12:44:54 PM 30.8917 -95.1175 220° Southwest 377 434 34,000  Level Houston Center
Fri 12:45:59 PM 30.8117 -95.1958 220° Southwest 376 433 34,000  Level Houston Center
Fri 12:46:59 PM 30.7297 -95.2733 219° Southwest 378 435 34,000  Level Houston Center
Fri 12:48:00 PM 30.6492 -95.3522 220° Southwest 378 435 34,000  Level Houston Center
Fri 12:49:04 PM 30.5625 -95.4361 220° Southwest 379 436 34,000  Level Houston Center
Fri 12:50:08 PM 30.4811 -95.5150 220° Southwest 382 440 34,000  Level Houston Center
Fri 12:51:09 PM 30.4014 -95.5919 220° Southwest 376 433 34,000  Level Houston Center
Fri 12:52:10 PM 30.3211 -95.6683 219° Southwest 375 432 34,000  Level Houston Center
Fri 12:53:14 PM 30.2247 -95.7603 220° Southwest 376 433 34,000  Level Houston Center
Fri 12:54:14 PM 30.1442 -95.8361 219° Southwest 375 432 34,000  Level Houston Center
Fri 12:55:16 PM 30.0639 -95.9150 220° Southwest 379 436 34,000  Level Houston Center
Fri 12:56:18 PM 29.9811 -95.9911 219° Southwest 382 440 34,000  Level Houston Center
Fri 12:57:20 PM 29.8858 -96.0817 219° Southwest 381 438 34,000 -429 Level Houston Center
Fri 12:58:24 PM 29.8064 -96.1603 221° Southwest 378 435 33,100 -1,008 Descending Houston Center
Fri 12:59:25 PM 29.7864 -96.2667 258° West 348 400 31,900 -1,475 Descending Houston Center
Fri 01:00:26 PM 29.7942 -96.3797 275° West 353 406 30,100 -1,476 Descending Houston Center
Fri 01:01:31 PM 29.8036 -96.4933 276° West 358 412 28,800 -1,344 Descending Houston Center
Fri 01:02:31 PM 29.8128 -96.6267 275° West 352 405 27,300 -1,355 Descending Houston Center
Fri 01:03:35 PM 29.8208 -96.7356 275° West 346 398 26,000 -1,258 Descending Houston Center
Fri 01:04:35 PM 29.8292 -96.8428 275° West 341 392 24,700 -1,210 Descending Houston Center
Fri 01:05:39 PM 29.8364 -96.9472 275° West 333 383 23,500 -1,143 Descending Houston Center
Fri 01:06:41 PM 29.8436 -97.0494 275° West 327 376 22,300 -1,268 Descending Houston Center
Fri 01:07:42 PM 29.8519 -97.1708 275° West 321 369 20,900 -1,248 Descending Houston Center
Fri 01:08:46 PM 29.8586 -97.2717 274° West 319 367 19,700 -1,104 Descending Houston Center
Fri 01:09:47 PM 29.8661 -97.3714 275° West 316 364 18,600 -1,254 Descending Houston Center
Fri 01:09:53 PM 29.8656 -97.3933 268° West 314 361 18,300 -1,286 Descending Houston Center
Fri 01:10:29 PM 29.8692 -97.4508 274° West 311 358 17,700 -1,053 Descending Houston Center
Fri 01:10:50 PM 29.8722 -97.4692 281° West 310 357 17,300 -1,180 Descending Houston Center
Fri 01:11:30 PM 29.8772 -97.5533 274° West 307 353 16,500 -1,180 Descending Houston Center
Fri 01:11:51 PM 29.8794 -97.5833 275° West 305 351 16,100 -1,082 Descending Houston Center
Fri 01:12:31 PM 29.8825 -97.6514 273° West 303 349 15,400 -1,031 Descending Houston Center
Fri 01:12:55 PM 29.8856 -97.6794 277° West 301 346 15,000 -1,065 Descending Houston Center
Fri 01:13:33 PM 29.8897 -97.7469 274° West 301 346 14,300 -1,161 Descending Houston Center
Fri 01:13:57 PM 29.8925 -97.7814 275° West 297 342 13,800 -1,100 Descending Houston Center
Fri 01:14:33 PM 29.8947 -97.8406 272° West 292 336 13,200 -787 Descending Houston Center
Fri 01:14:58 PM 29.8939 -97.8733 268° West 289 333 13,000 -1,065 Descending Houston Center
Fri 01:15:35 PM 29.8714 -97.9253 243° Southwest 289 333 12,100 -1,869 Descending Houston Center
Fri 01:15:59 PM 29.8547 -97.9644 244° Southwest 293 337 11,100 -1,701 Descending Houston Center
Fri 01:16:42 PM 29.8297 -98.0197 242° Southwest 283 326 10,200 -1,219 Descending Houston Center
Fri 01:17:03 PM 29.8219 -98.0431 249° West 277 319 9,800 -1,545 Descending Houston Center
Fri 01:17:48 PM 29.7975 -98.1008 244° Southwest 261 300 8,500 -1,770 Descending Houston Center
Fri 01:18:04 PM 29.7878 -98.1239 244° Southwest 263 303 8,000 -1,393 Descending Houston Center
Fri 01:18:44 PM 29.7683 -98.1694 244° Southwest 257 296 7,200 -1,125 Descending Houston Center
Fri 01:19:08 PM 29.7572 -98.1964 245° Southwest 252 290 6,800 -767 Descending Houston Center
Fri 01:20:10 PM 29.7247 -98.2728 244° Southwest 249 287 6,100 -505 Descending Houston Center
Fri 01:20:43 PM 29.7197 -98.3247 264° West 258 297 6,000 -98 Descending Houston Center
Fri 01:21:11 PM 29.7192 -98.3544 269° West 257 296 6,000  Level Houston Center
Fri 01:21:44 PM 29.7183 -98.3994 269° West 225 259 6,000 94 Level Houston Center
Fri 01:22:15 PM 29.7167 -98.4292 266° West 221 254 6,100 -563 Climbing Houston Center
Fri 01:22:48 PM 29.7161 -98.4647 269° West 204 235 5,400 -984 Descending Houston Center
Fri 01:23:16 PM 29.7150 -98.4964 268° West 212 244 5,100 -414 Descending Houston Center
Fri 01:23:46 PM 29.7119 -98.5350 265° West 222 255 5,000 -492 Descending Houston Center
Fri 01:24:17 PM 29.7125 -98.5731 271° West 222 255 4,600 -1,082 Descending Houston Center
Fri 01:24:47 PM 29.7106 -98.6119 267° West 225 259 3,900 -885 Descending Houston Center
Fri 01:25:18 PM 29.6944 -98.6367 233° Southwest 221 254 3,700 -484 Descending Houston Center
Fri 01:25:49 PM 29.6672 -98.6436 192° South 188 216 3,400 -375 Descending Houston Center
Fri 01:26:22 PM 29.6486 -98.6225 135° Southeast 183 211 3,300 -321 Descending Houston Center
Fri 01:26:45 PM 29.6344 -98.6067 136° Southeast 175 201 3,100 -197 Descending Houston Center
Fri 01:27:23 PM 29.6167 -98.5806 128° Southeast 176 203 3,100 -407 Level Houston Center
Fri 01:27:44 PM 29.6056 -98.5669 133° Southeast 157 181 2,700 -871 Descending Houston Center
Fri 01:28:25 PM 29.5861 -98.5411 131° Southeast 159 183 2,200 -811 Descending Houston Center
Fri 01:28:58 PM 29.5725 -98.5253 135° Southeast 142 163 1,700 -646 Descending Houston Center
Fri 01:29:30 PM 29.5611 -98.5092 129° Southeast 140 161 1,500 -750 Descending Houston Center
Fri 01:29:54 PM 29.5486 -98.4944 134° Southeast 134 154 1,000 -600 Descending Houston Center
Fri 01:30:30 PM 29.5350 -98.4756 130° Southeast 135 155 900 -167 Descending Houston Center
Fri 01:32:00 PM 29.5333 -98.4667 16° North  Level FlightAware Approximate
Fri 01:39:00 PM 29.5340 -98.4691 16° North  Level Estimated

Login

Don't have an account? Register now (free) for customized features, flight alerts, and more!